sensor_id;sensor_type;location;lat;lon;timestamp;P1;durP1;ratioP1;P2;durP2;ratioP2
5026;SDS011;2532;52.480;13.354;2023-11-18T00:00:48;8.13;;;6.30;;
5026;SDS011;2532;52.480;13.354;2023-11-18T00:03:19;8.20;;;6.60;;
5026;SDS011;2532;52.480;13.354;2023-11-18T00:05:46;9.33;;;7.07;;
5026;SDS011;2532;52.480;13.354;2023-11-18T00:08:13;11.87;;;7.60;;
5026;SDS011;2532;52.480;13.354;2023-11-18T00:10:40;9.03;;;6.50;;
5026;SDS011;2532;52.480;13.354;2023-11-18T00:13:07;12.57;;;8.43;;
5026;SDS011;2532;52.480;13.354;2023-11-18T00:15:34;11.30;;;6.80;;
5026;SDS011;2532;52.480;13.354;2023-11-18T00:18:01;9.20;;;6.93;;
5026;SDS011;2532;52.480;13.354;2023-11-18T00:20:30;10.10;;;8.03;;
5026;SDS011;2532;52.480;13.354;2023-11-18T00:22:57;9.57;;;7.27;;
5026;SDS011;2532;52.480;13.354;2023-11-18T00:25:24;10.10;;;7.67;;
5026;SDS011;2532;52.480;13.354;2023-11-18T00:27:50;11.00;;;9.03;;
5026;SDS011;2532;52.480;13.354;2023-11-18T00:30:17;11.20;;;8.53;;
5026;SDS011;2532;52.480;13.354;2023-11-18T00:32:44;11.33;;;8.10;;
5026;SDS011;2532;52.480;13.354;2023-11-18T00:35:11;9.77;;;7.47;;
5026;SDS011;2532;52.480;13.354;2023-11-18T00:37:41;10.60;;;6.67;;
5026;SDS011;2532;52.480;13.354;2023-11-18T00:40:09;10.93;;;8.80;;
5026;SDS011;2532;52.480;13.354;2023-11-18T00:42:36;9.13;;;6.87;;
5026;SDS011;2532;52.480;13.354;2023-11-18T00:45:04;9.50;;;7.53;;
5026;SDS011;2532;52.480;13.354;2023-11-18T00:47:32;11.10;;;7.50;;
5026;SDS011;2532;52.480;13.354;2023-11-18T00:49:59;11.10;;;8.13;;
5026;SDS011;2532;52.480;13.354;2023-11-18T00:52:27;9.43;;;6.80;;
5026;SDS011;2532;52.480;13.354;2023-11-18T00:54:55;12.63;;;7.27;;
5026;SDS011;2532;52.480;13.354;2023-11-18T00:57:22;10.40;;;7.60;;
5026;SDS011;2532;52.480;13.354;2023-11-18T00:59:49;10.17;;;7.60;;
5026;SDS011;2532;52.480;13.354;2023-11-18T01:02:16;11.40;;;8.57;;
5026;SDS011;2532;52.480;13.354;2023-11-18T01:04:43;11.23;;;6.97;;
5026;SDS011;2532;52.480;13.354;2023-11-18T01:07:10;11.17;;;7.20;;
5026;SDS011;2532;52.480;13.354;2023-11-18T01:09:37;7.90;;;6.47;;
5026;SDS011;2532;52.480;13.354;2023-11-18T01:12:07;8.83;;;7.10;;
5026;SDS011;2532;52.480;13.354;2023-11-18T01:14:35;8.80;;;6.43;;
5026;SDS011;2532;52.480;13.354;2023-11-18T01:17:03;16.10;;;10.67;;
5026;SDS011;2532;52.480;13.354;2023-11-18T01:19:31;11.40;;;7.00;;
5026;SDS011;2532;52.480;13.354;2023-11-18T01:21:58;9.07;;;6.40;;
5026;SDS011;2532;52.480;13.354;2023-11-18T01:24:25;9.70;;;7.83;;
5026;SDS011;2532;52.480;13.354;2023-11-18T01:26:53;12.37;;;7.30;;
5026;SDS011;2532;52.480;13.354;2023-11-18T01:29:21;10.73;;;6.67;;
5026;SDS011;2532;52.480;13.354;2023-11-18T01:31:49;8.33;;;6.60;;
5026;SDS011;2532;52.480;13.354;2023-11-18T01:34:16;9.37;;;6.97;;
5026;SDS011;2532;52.480;13.354;2023-11-18T01:36:46;10.07;;;7.60;;
5026;SDS011;2532;52.480;13.354;2023-11-18T01:39:14;9.93;;;7.47;;
5026;SDS011;2532;52.480;13.354;2023-11-18T01:41:42;9.97;;;7.23;;
5026;SDS011;2532;52.480;13.354;2023-11-18T01:44:09;8.50;;;6.97;;
5026;SDS011;2532;52.480;13.354;2023-11-18T01:46:40;10.50;;;7.23;;
5026;SDS011;2532;52.480;13.354;2023-11-18T01:49:10;14.00;;;7.30;;
5026;SDS011;2532;52.480;13.354;2023-11-18T01:51:38;9.80;;;7.43;;
5026;SDS011;2532;52.480;13.354;2023-11-18T01:54:06;10.33;;;8.70;;
5026;SDS011;2532;52.480;13.354;2023-11-18T01:56:37;10.40;;;7.40;;
5026;SDS011;2532;52.480;13.354;2023-11-18T01:59:04;10.90;;;7.17;;
5026;SDS011;2532;52.480;13.354;2023-11-18T02:01:34;11.00;;;7.73;;
5026;SDS011;2532;52.480;13.354;2023-11-18T02:04:03;9.03;;;6.73;;
5026;SDS011;2532;52.480;13.354;2023-11-18T02:06:32;11.43;;;7.50;;
5026;SDS011;2532;52.480;13.354;2023-11-18T02:09:01;10.67;;;7.40;;
5026;SDS011;2532;52.480;13.354;2023-11-18T02:11:30;12.03;;;8.97;;
5026;SDS011;2532;52.480;13.354;2023-11-18T02:14:06;13.37;;;9.37;;
5026;SDS011;2532;52.480;13.354;2023-11-18T02:16:38;10.67;;;7.17;;
5026;SDS011;2532;52.480;13.354;2023-11-18T02:19:09;7.93;;;6.57;;
5026;SDS011;2532;52.480;13.354;2023-11-18T02:21:45;9.60;;;6.73;;
5026;SDS011;2532;52.480;13.354;2023-11-18T02:24:24;9.20;;;7.80;;
5026;SDS011;2532;52.480;13.354;2023-11-18T02:26:53;7.07;;;6.37;;
5026;SDS011;2532;52.480;13.354;2023-11-18T02:29:21;9.87;;;7.23;;
5026;SDS011;2532;52.480;13.354;2023-11-18T02:31:48;7.67;;;6.03;;
5026;SDS011;2532;52.480;13.354;2023-11-18T02:34:22;8.07;;;6.70;;
5026;SDS011;2532;52.480;13.354;2023-11-18T02:36:53;10.20;;;6.67;;
5026;SDS011;2532;52.480;13.354;2023-11-18T02:39:27;9.80;;;6.40;;
5026;SDS011;2532;52.480;13.354;2023-11-18T02:42:01;8.73;;;6.00;;
5026;SDS011;2532;52.480;13.354;2023-11-18T02:44:29;11.13;;;8.00;;
5026;SDS011;2532;52.480;13.354;2023-11-18T02:46:58;11.30;;;6.97;;
5026;SDS011;2532;52.480;13.354;2023-11-18T02:49:25;10.70;;;7.63;;
5026;SDS011;2532;52.480;13.354;2023-11-18T02:51:53;10.40;;;6.10;;
5026;SDS011;2532;52.480;13.354;2023-11-18T02:54:20;9.97;;;8.03;;
5026;SDS011;2532;52.480;13.354;2023-11-18T02:56:47;12.20;;;7.07;;
5026;SDS011;2532;52.480;13.354;2023-11-18T02:59:16;9.90;;;6.47;;
5026;SDS011;2532;52.480;13.354;2023-11-18T03:01:43;9.40;;;6.10;;
5026;SDS011;2532;52.480;13.354;2023-11-18T03:04:10;8.73;;;7.30;;
5026;SDS011;2532;52.480;13.354;2023-11-18T03:06:39;8.03;;;6.50;;
5026;SDS011;2532;52.480;13.354;2023-11-18T03:09:06;9.30;;;6.70;;
5026;SDS011;2532;52.480;13.354;2023-11-18T03:11:35;11.00;;;7.13;;
5026;SDS011;2532;52.480;13.354;2023-11-18T03:14:03;9.10;;;6.40;;
5026;SDS011;2532;52.480;13.354;2023-11-18T03:16:35;11.30;;;8.43;;
5026;SDS011;2532;52.480;13.354;2023-11-18T03:19:03;9.00;;;5.90;;
5026;SDS011;2532;52.480;13.354;2023-11-18T03:21:30;11.60;;;8.20;;
5026;SDS011;2532;52.480;13.354;2023-11-18T03:23:57;10.40;;;6.77;;
5026;SDS011;2532;52.480;13.354;2023-11-18T03:26:24;8.80;;;6.30;;
5026;SDS011;2532;52.480;13.354;2023-11-18T03:28:52;8.30;;;6.13;;
5026;SDS011;2532;52.480;13.354;2023-11-18T03:31:19;10.23;;;6.50;;
5026;SDS011;2532;52.480;13.354;2023-11-18T03:33:47;8.93;;;6.20;;
5026;SDS011;2532;52.480;13.354;2023-11-18T03:36:14;8.40;;;6.40;;
5026;SDS011;2532;52.480;13.354;2023-11-18T03:38:43;8.60;;;5.70;;
5026;SDS011;2532;52.480;13.354;2023-11-18T03:41:10;9.20;;;7.00;;
5026;SDS011;2532;52.480;13.354;2023-11-18T03:43:37;9.63;;;5.90;;
5026;SDS011;2532;52.480;13.354;2023-11-18T03:46:05;7.37;;;5.73;;
5026;SDS011;2532;52.480;13.354;2023-11-18T03:48:32;8.00;;;5.57;;
5026;SDS011;2532;52.480;13.354;2023-11-18T03:51:02;7.87;;;5.10;;
5026;SDS011;2532;52.480;13.354;2023-11-18T03:53:29;7.00;;;5.60;;
5026;SDS011;2532;52.480;13.354;2023-11-18T03:55:59;11.90;;;5.80;;
5026;SDS011;2532;52.480;13.354;2023-11-18T03:58:28;6.97;;;5.13;;
5026;SDS011;2532;52.480;13.354;2023-11-18T04:00:57;6.20;;;5.07;;
5026;SDS011;2532;52.480;13.354;2023-11-18T04:03:24;8.47;;;5.83;;
5026;SDS011;2532;52.480;13.354;2023-11-18T04:05:51;9.73;;;5.57;;
5026;SDS011;2532;52.480;13.354;2023-11-18T04:08:20;8.40;;;6.47;;
5026;SDS011;2532;52.480;13.354;2023-11-18T04:10:47;10.77;;;6.80;;
5026;SDS011;2532;52.480;13.354;2023-11-18T04:13:14;7.83;;;6.30;;
5026;SDS011;2532;52.480;13.354;2023-11-18T04:15:40;8.23;;;6.20;;
5026;SDS011;2532;52.480;13.354;2023-11-18T04:18:08;12.13;;;8.60;;
5026;SDS011;2532;52.480;13.354;2023-11-18T04:20:35;13.23;;;7.03;;
5026;SDS011;2532;52.480;13.354;2023-11-18T04:23:02;11.03;;;7.20;;
5026;SDS011;2532;52.480;13.354;2023-11-18T04:25:31;10.63;;;7.10;;
5026;SDS011;2532;52.480;13.354;2023-11-18T04:27:58;10.80;;;8.20;;
5026;SDS011;2532;52.480;13.354;2023-11-18T04:30:25;12.50;;;9.47;;
5026;SDS011;2532;52.480;13.354;2023-11-18T04:32:52;11.67;;;7.57;;
5026;SDS011;2532;52.480;13.354;2023-11-18T04:35:19;12.70;;;8.17;;
5026;SDS011;2532;52.480;13.354;2023-11-18T04:37:47;10.97;;;7.53;;
5026;SDS011;2532;52.480;13.354;2023-11-18T04:40:14;11.40;;;7.83;;
5026;SDS011;2532;52.480;13.354;2023-11-18T04:42:43;11.43;;;7.73;;
5026;SDS011;2532;52.480;13.354;2023-11-18T04:45:10;12.73;;;8.37;;
5026;SDS011;2532;52.480;13.354;2023-11-18T04:47:37;12.20;;;8.47;;
5026;SDS011;2532;52.480;13.354;2023-11-18T04:50:04;16.00;;;7.80;;
5026;SDS011;2532;52.480;13.354;2023-11-18T04:52:34;13.60;;;10.20;;
5026;SDS011;2532;52.480;13.354;2023-11-18T04:55:01;11.10;;;8.00;;
5026;SDS011;2532;52.480;13.354;2023-11-18T04:57:30;16.33;;;9.30;;
5026;SDS011;2532;52.480;13.354;2023-11-18T04:59:58;12.20;;;7.77;;
5026;SDS011;2532;52.480;13.354;2023-11-18T05:02:35;14.43;;;7.30;;
5026;SDS011;2532;52.480;13.354;2023-11-18T05:05:02;12.83;;;8.40;;
5026;SDS011;2532;52.480;13.354;2023-11-18T05:07:30;10.77;;;8.57;;
5026;SDS011;2532;52.480;13.354;2023-11-18T05:09:57;11.87;;;8.70;;
5026;SDS011;2532;52.480;13.354;2023-11-18T05:12:24;12.50;;;7.10;;
5026;SDS011;2532;52.480;13.354;2023-11-18T05:14:51;12.07;;;8.40;;
5026;SDS011;2532;52.480;13.354;2023-11-18T05:17:21;13.47;;;8.17;;
5026;SDS011;2532;52.480;13.354;2023-11-18T05:19:48;10.47;;;6.83;;
5026;SDS011;2532;52.480;13.354;2023-11-18T05:22:15;11.63;;;8.23;;
5026;SDS011;2532;52.480;13.354;2023-11-18T05:24:43;14.33;;;7.33;;
5026;SDS011;2532;52.480;13.354;2023-11-18T05:27:10;10.67;;;7.03;;
5026;SDS011;2532;52.480;13.354;2023-11-18T05:29:37;11.50;;;7.90;;
5026;SDS011;2532;52.480;13.354;2023-11-18T05:32:06;10.40;;;7.50;;
5026;SDS011;2532;52.480;13.354;2023-11-18T05:34:35;15.00;;;7.07;;
5026;SDS011;2532;52.480;13.354;2023-11-18T05:37:02;11.60;;;8.80;;
5026;SDS011;2532;52.480;13.354;2023-11-18T05:39:29;12.60;;;7.63;;
5026;SDS011;2532;52.480;13.354;2023-11-18T05:41:56;15.07;;;7.10;;
5026;SDS011;2532;52.480;13.354;2023-11-18T05:44:23;11.07;;;8.50;;
5026;SDS011;2532;52.480;13.354;2023-11-18T05:46:55;9.53;;;7.20;;
5026;SDS011;2532;52.480;13.354;2023-11-18T05:49:22;12.80;;;8.30;;
5026;SDS011;2532;52.480;13.354;2023-11-18T05:51:51;12.17;;;7.40;;
5026;SDS011;2532;52.480;13.354;2023-11-18T05:54:18;11.37;;;7.40;;
5026;SDS011;2532;52.480;13.354;2023-11-18T05:56:45;10.53;;;8.00;;
5026;SDS011;2532;52.480;13.354;2023-11-18T05:59:12;11.00;;;7.10;;
5026;SDS011;2532;52.480;13.354;2023-11-18T06:01:39;14.73;;;9.07;;
5026;SDS011;2532;52.480;13.354;2023-11-18T06:04:06;11.47;;;8.03;;
5026;SDS011;2532;52.480;13.354;2023-11-18T06:06:35;14.53;;;7.50;;
5026;SDS011;2532;52.480;13.354;2023-11-18T06:09:03;14.17;;;9.10;;
5026;SDS011;2532;52.480;13.354;2023-11-18T06:11:34;12.33;;;7.57;;
5026;SDS011;2532;52.480;13.354;2023-11-18T06:14:02;11.70;;;8.20;;
5026;SDS011;2532;52.480;13.354;2023-11-18T06:16:29;11.43;;;8.63;;
5026;SDS011;2532;52.480;13.354;2023-11-18T06:18:56;8.90;;;7.03;;
5026;SDS011;2532;52.480;13.354;2023-11-18T06:21:24;9.70;;;7.40;;
5026;SDS011;2532;52.480;13.354;2023-11-18T06:23:55;12.93;;;7.83;;
5026;SDS011;2532;52.480;13.354;2023-11-18T06:26:24;11.00;;;7.50;;
5026;SDS011;2532;52.480;13.354;2023-11-18T06:28:52;12.10;;;9.10;;
5026;SDS011;2532;52.480;13.354;2023-11-18T06:31:20;9.13;;;7.20;;
5026;SDS011;2532;52.480;13.354;2023-11-18T06:33:49;10.13;;;6.93;;
5026;SDS011;2532;52.480;13.354;2023-11-18T06:36:17;11.30;;;7.50;;
5026;SDS011;2532;52.480;13.354;2023-11-18T06:38:45;11.73;;;9.17;;
5026;SDS011;2532;52.480;13.354;2023-11-18T06:41:15;12.13;;;7.60;;
5026;SDS011;2532;52.480;13.354;2023-11-18T06:43:44;11.70;;;7.80;;
5026;SDS011;2532;52.480;13.354;2023-11-18T06:46:22;10.10;;;7.00;;
5026;SDS011;2532;52.480;13.354;2023-11-18T06:48:50;11.40;;;7.87;;
5026;SDS011;2532;52.480;13.354;2023-11-18T06:51:19;8.97;;;7.00;;
5026;SDS011;2532;52.480;13.354;2023-11-18T06:53:48;11.77;;;7.50;;
5026;SDS011;2532;52.480;13.354;2023-11-18T06:56:15;10.60;;;7.07;;
5026;SDS011;2532;52.480;13.354;2023-11-18T06:58:44;15.90;;;7.67;;
5026;SDS011;2532;52.480;13.354;2023-11-18T07:01:12;11.20;;;7.50;;
5026;SDS011;2532;52.480;13.354;2023-11-18T07:03:40;8.87;;;7.00;;
5026;SDS011;2532;52.480;13.354;2023-11-18T07:06:07;12.63;;;7.47;;
5026;SDS011;2532;52.480;13.354;2023-11-18T07:08:34;14.43;;;9.10;;
5026;SDS011;2532;52.480;13.354;2023-11-18T07:11:02;14.63;;;8.23;;
5026;SDS011;2532;52.480;13.354;2023-11-18T07:13:29;15.30;;;9.03;;
5026;SDS011;2532;52.480;13.354;2023-11-18T07:15:58;14.53;;;9.70;;
5026;SDS011;2532;52.480;13.354;2023-11-18T07:18:25;11.50;;;7.20;;
5026;SDS011;2532;52.480;13.354;2023-11-18T07:20:52;11.03;;;7.70;;
5026;SDS011;2532;52.480;13.354;2023-11-18T07:23:19;10.47;;;7.33;;
5026;SDS011;2532;52.480;13.354;2023-11-18T07:25:51;13.60;;;9.10;;
5026;SDS011;2532;52.480;13.354;2023-11-18T07:28:18;14.70;;;8.23;;
5026;SDS011;2532;52.480;13.354;2023-11-18T07:30:46;16.27;;;8.87;;
5026;SDS011;2532;52.480;13.354;2023-11-18T07:33:15;13.10;;;9.00;;
5026;SDS011;2532;52.480;13.354;2023-11-18T07:35:44;15.17;;;9.90;;
5026;SDS011;2532;52.480;13.354;2023-11-18T07:38:11;14.73;;;9.33;;
5026;SDS011;2532;52.480;13.354;2023-11-18T07:40:39;12.60;;;8.10;;
5026;SDS011;2532;52.480;13.354;2023-11-18T07:43:07;14.47;;;10.47;;
5026;SDS011;2532;52.480;13.354;2023-11-18T07:45:35;15.20;;;9.63;;
5026;SDS011;2532;52.480;13.354;2023-11-18T07:48:04;12.23;;;8.17;;
5026;SDS011;2532;52.480;13.354;2023-11-18T07:50:33;12.27;;;7.60;;
5026;SDS011;2532;52.480;13.354;2023-11-18T07:53:00;14.57;;;9.83;;
5026;SDS011;2532;52.480;13.354;2023-11-18T07:55:28;13.03;;;8.10;;
5026;SDS011;2532;52.480;13.354;2023-11-18T07:57:55;12.03;;;7.93;;
5026;SDS011;2532;52.480;13.354;2023-11-18T08:00:22;11.07;;;8.27;;
5026;SDS011;2532;52.480;13.354;2023-11-18T08:02:49;12.27;;;8.70;;
5026;SDS011;2532;52.480;13.354;2023-11-18T08:05:19;13.53;;;9.27;;
5026;SDS011;2532;52.480;13.354;2023-11-18T08:07:49;14.10;;;10.60;;
5026;SDS011;2532;52.480;13.354;2023-11-18T08:10:16;16.43;;;11.77;;
5026;SDS011;2532;52.480;13.354;2023-11-18T08:12:44;14.10;;;10.00;;
5026;SDS011;2532;52.480;13.354;2023-11-18T08:15:12;15.63;;;11.80;;
5026;SDS011;2532;52.480;13.354;2023-11-18T08:17:40;16.50;;;10.57;;
5026;SDS011;2532;52.480;13.354;2023-11-18T08:20:07;13.93;;;9.53;;
5026;SDS011;2532;52.480;13.354;2023-11-18T08:22:39;15.47;;;11.13;;
5026;SDS011;2532;52.480;13.354;2023-11-18T08:25:09;16.43;;;9.67;;
5026;SDS011;2532;52.480;13.354;2023-11-18T08:27:37;20.13;;;11.53;;
5026;SDS011;2532;52.480;13.354;2023-11-18T08:30:05;19.73;;;10.47;;
5026;SDS011;2532;52.480;13.354;2023-11-18T08:32:36;16.20;;;12.53;;
5026;SDS011;2532;52.480;13.354;2023-11-18T08:35:05;17.63;;;11.77;;
5026;SDS011;2532;52.480;13.354;2023-11-18T08:37:33;16.90;;;10.30;;
5026;SDS011;2532;52.480;13.354;2023-11-18T08:40:01;21.83;;;13.97;;
5026;SDS011;2532;52.480;13.354;2023-11-18T08:42:30;18.53;;;12.53;;
5026;SDS011;2532;52.480;13.354;2023-11-18T08:44:59;18.73;;;14.23;;
5026;SDS011;2532;52.480;13.354;2023-11-18T08:47:27;13.30;;;9.33;;
5026;SDS011;2532;52.480;13.354;2023-11-18T08:49:57;17.43;;;11.03;;
5026;SDS011;2532;52.480;13.354;2023-11-18T08:52:36;14.43;;;10.33;;
5026;SDS011;2532;52.480;13.354;2023-11-18T08:55:08;13.13;;;8.53;;
5026;SDS011;2532;52.480;13.354;2023-11-18T08:57:44;13.90;;;9.67;;
5026;SDS011;2532;52.480;13.354;2023-11-18T09:00:23;15.70;;;11.70;;
5026;SDS011;2532;52.480;13.354;2023-11-18T09:03:11;15.47;;;9.53;;
5026;SDS011;2532;52.480;13.354;2023-11-18T09:05:43;20.67;;;11.40;;
5026;SDS011;2532;52.480;13.354;2023-11-18T09:08:22;36.40;;;10.70;;
5026;SDS011;2532;52.480;13.354;2023-11-18T09:10:54;18.30;;;9.23;;
5026;SDS011;2532;52.480;13.354;2023-11-18T09:13:24;18.47;;;9.53;;
5026;SDS011;2532;52.480;13.354;2023-11-18T09:15:56;15.30;;;9.70;;
5026;SDS011;2532;52.480;13.354;2023-11-18T09:18:25;15.17;;;9.40;;
5026;SDS011;2532;52.480;13.354;2023-11-18T09:20:53;12.57;;;8.80;;
5026;SDS011;2532;52.480;13.354;2023-11-18T09:23:21;14.23;;;9.80;;
5026;SDS011;2532;52.480;13.354;2023-11-18T09:25:50;13.00;;;8.90;;
5026;SDS011;2532;52.480;13.354;2023-11-18T09:28:18;17.53;;;11.20;;
5026;SDS011;2532;52.480;13.354;2023-11-18T09:30:49;13.70;;;9.60;;
5026;SDS011;2532;52.480;13.354;2023-11-18T09:33:19;17.20;;;10.17;;
5026;SDS011;2532;52.480;13.354;2023-11-18T09:35:51;15.17;;;9.80;;
5026;SDS011;2532;52.480;13.354;2023-11-18T09:38:23;13.93;;;9.63;;
5026;SDS011;2532;52.480;13.354;2023-11-18T09:40:53;12.67;;;8.83;;
5026;SDS011;2532;52.480;13.354;2023-11-18T09:43:20;18.30;;;10.43;;
5026;SDS011;2532;52.480;13.354;2023-11-18T09:45:52;15.83;;;9.57;;
5026;SDS011;2532;52.480;13.354;2023-11-18T09:48:21;15.60;;;9.37;;
5026;SDS011;2532;52.480;13.354;2023-11-18T09:50:51;15.33;;;10.13;;
5026;SDS011;2532;52.480;13.354;2023-11-18T09:53:19;18.60;;;11.77;;
5026;SDS011;2532;52.480;13.354;2023-11-18T09:55:52;16.77;;;12.37;;
5026;SDS011;2532;52.480;13.354;2023-11-18T09:58:25;18.73;;;10.33;;
5026;SDS011;2532;52.480;13.354;2023-11-18T10:01:01;24.10;;;10.03;;
5026;SDS011;2532;52.480;13.354;2023-11-18T10:03:29;18.57;;;9.57;;
5026;SDS011;2532;52.480;13.354;2023-11-18T10:05:56;13.13;;;9.40;;
5026;SDS011;2532;52.480;13.354;2023-11-18T10:08:30;15.23;;;9.10;;
5026;SDS011;2532;52.480;13.354;2023-11-18T10:10:57;21.13;;;8.50;;
5026;SDS011;2532;52.480;13.354;2023-11-18T10:13:30;15.10;;;9.87;;
5026;SDS011;2532;52.480;13.354;2023-11-18T10:15:59;15.43;;;8.97;;
5026;SDS011;2532;52.480;13.354;2023-11-18T10:18:30;15.60;;;10.00;;
5026;SDS011;2532;52.480;13.354;2023-11-18T10:21:00;15.10;;;9.43;;
5026;SDS011;2532;52.480;13.354;2023-11-18T10:23:29;16.17;;;9.33;;
5026;SDS011;2532;52.480;13.354;2023-11-18T10:25:59;15.80;;;9.43;;
5026;SDS011;2532;52.480;13.354;2023-11-18T10:28:29;13.67;;;9.50;;
5026;SDS011;2532;52.480;13.354;2023-11-18T10:30:58;17.27;;;10.00;;
5026;SDS011;2532;52.480;13.354;2023-11-18T10:33:30;17.50;;;10.03;;
5026;SDS011;2532;52.480;13.354;2023-11-18T10:35:57;13.93;;;9.20;;
5026;SDS011;2532;52.480;13.354;2023-11-18T10:38:29;14.33;;;8.80;;
5026;SDS011;2532;52.480;13.354;2023-11-18T10:40:56;14.90;;;9.63;;
5026;SDS011;2532;52.480;13.354;2023-11-18T10:43:26;16.07;;;8.97;;
5026;SDS011;2532;52.480;13.354;2023-11-18T10:46:04;13.33;;;9.17;;
5026;SDS011;2532;52.480;13.354;2023-11-18T10:48:40;13.60;;;9.30;;
5026;SDS011;2532;52.480;13.354;2023-11-18T10:51:09;18.37;;;9.20;;
5026;SDS011;2532;52.480;13.354;2023-11-18T10:53:38;13.30;;;8.97;;
5026;SDS011;2532;52.480;13.354;2023-11-18T10:56:16;16.87;;;8.80;;
5026;SDS011;2532;52.480;13.354;2023-11-18T10:58:49;15.03;;;7.73;;
5026;SDS011;2532;52.480;13.354;2023-11-18T11:01:17;12.60;;;7.90;;
5026;SDS011;2532;52.480;13.354;2023-11-18T11:03:57;12.80;;;8.50;;
5026;SDS011;2532;52.480;13.354;2023-11-18T11:06:24;15.00;;;7.50;;
5026;SDS011;2532;52.480;13.354;2023-11-18T11:08:55;14.27;;;8.20;;
5026;SDS011;2532;52.480;13.354;2023-11-18T11:11:24;13.97;;;8.80;;
5026;SDS011;2532;52.480;13.354;2023-11-18T11:13:53;16.97;;;11.23;;
5026;SDS011;2532;52.480;13.354;2023-11-18T11:16:23;13.53;;;8.27;;
5026;SDS011;2532;52.480;13.354;2023-11-18T11:19:01;18.07;;;10.47;;
5026;SDS011;2532;52.480;13.354;2023-11-18T11:21:33;18.70;;;10.80;;
5026;SDS011;2532;52.480;13.354;2023-11-18T11:24:16;16.27;;;9.87;;
5026;SDS011;2532;52.480;13.354;2023-11-18T11:27:04;10.73;;;6.80;;
5026;SDS011;2532;52.480;13.354;2023-11-18T11:29:45;11.03;;;7.30;;
5026;SDS011;2532;52.480;13.354;2023-11-18T11:32:23;11.43;;;8.70;;
5026;SDS011;2532;52.480;13.354;2023-11-18T11:35:00;12.50;;;7.90;;
5026;SDS011;2532;52.480;13.354;2023-11-18T11:37:33;12.90;;;8.70;;
5026;SDS011;2532;52.480;13.354;2023-11-18T11:40:01;11.60;;;8.23;;
5026;SDS011;2532;52.480;13.354;2023-11-18T11:42:34;12.60;;;8.00;;
5026;SDS011;2532;52.480;13.354;2023-11-18T11:45:01;10.93;;;7.47;;
5026;SDS011;2532;52.480;13.354;2023-11-18T11:47:28;13.70;;;8.70;;
5026;SDS011;2532;52.480;13.354;2023-11-18T11:50:02;13.17;;;8.60;;
5026;SDS011;2532;52.480;13.354;2023-11-18T11:52:38;15.87;;;9.20;;
5026;SDS011;2532;52.480;13.354;2023-11-18T11:55:15;15.17;;;9.40;;
5026;SDS011;2532;52.480;13.354;2023-11-18T11:57:50;15.80;;;8.80;;
5026;SDS011;2532;52.480;13.354;2023-11-18T12:00:19;13.87;;;8.77;;
5026;SDS011;2532;52.480;13.354;2023-11-18T12:02:51;13.87;;;8.30;;
5026;SDS011;2532;52.480;13.354;2023-11-18T12:05:21;12.40;;;7.83;;
5026;SDS011;2532;52.480;13.354;2023-11-18T12:07:52;19.00;;;8.43;;
5026;SDS011;2532;52.480;13.354;2023-11-18T12:10:20;16.30;;;8.77;;
5026;SDS011;2532;52.480;13.354;2023-11-18T12:12:48;14.27;;;9.17;;
5026;SDS011;2532;52.480;13.354;2023-11-18T12:15:20;18.03;;;10.30;;
5026;SDS011;2532;52.480;13.354;2023-11-18T12:18:19;18.47;;;10.33;;
5026;SDS011;2532;52.480;13.354;2023-11-18T12:20:48;16.93;;;9.60;;
5026;SDS011;2532;52.480;13.354;2023-11-18T12:23:19;19.47;;;10.03;;
5026;SDS011;2532;52.480;13.354;2023-11-18T12:25:49;16.63;;;10.97;;
5026;SDS011;2532;52.480;13.354;2023-11-18T12:28:19;16.93;;;10.60;;
5026;SDS011;2532;52.480;13.354;2023-11-18T12:30:52;20.00;;;10.90;;
5026;SDS011;2532;52.480;13.354;2023-11-18T12:33:21;17.07;;;10.27;;
5026;SDS011;2532;52.480;13.354;2023-11-18T12:39:17;17.07;;;9.67;;
5026;SDS011;2532;52.480;13.354;2023-11-18T12:42:02;16.53;;;9.90;;
5026;SDS011;2532;52.480;13.354;2023-11-18T12:44:37;13.87;;;9.27;;
5026;SDS011;2532;52.480;13.354;2023-11-18T12:47:06;17.30;;;10.10;;
5026;SDS011;2532;52.480;13.354;2023-11-18T12:49:40;15.47;;;9.47;;
5026;SDS011;2532;52.480;13.354;2023-11-18T12:52:07;16.23;;;8.83;;
5026;SDS011;2532;52.480;13.354;2023-11-18T12:54:37;11.43;;;7.47;;
5026;SDS011;2532;52.480;13.354;2023-11-18T12:57:08;13.90;;;9.20;;
5026;SDS011;2532;52.480;13.354;2023-11-18T12:59:39;14.53;;;8.73;;
5026;SDS011;2532;52.480;13.354;2023-11-18T13:02:07;13.70;;;9.13;;
5026;SDS011;2532;52.480;13.354;2023-11-18T13:04:38;15.40;;;9.10;;
5026;SDS011;2532;52.480;13.354;2023-11-18T13:07:06;16.10;;;9.60;;
5026;SDS011;2532;52.480;13.354;2023-11-18T13:09:37;14.90;;;8.70;;
5026;SDS011;2532;52.480;13.354;2023-11-18T13:12:06;18.30;;;9.57;;
5026;SDS011;2532;52.480;13.354;2023-11-18T13:14:34;17.50;;;9.10;;
5026;SDS011;2532;52.480;13.354;2023-11-18T13:17:02;13.10;;;8.70;;
5026;SDS011;2532;52.480;13.354;2023-11-18T13:19:31;17.40;;;8.93;;
5026;SDS011;2532;52.480;13.354;2023-11-18T13:21:59;13.20;;;8.90;;
5026;SDS011;2532;52.480;13.354;2023-11-18T13:24:29;21.60;;;9.80;;
5026;SDS011;2532;52.480;13.354;2023-11-18T13:26:57;12.77;;;9.10;;
5026;SDS011;2532;52.480;13.354;2023-11-18T13:29:28;13.43;;;8.70;;
5026;SDS011;2532;52.480;13.354;2023-11-18T13:31:55;12.20;;;7.90;;
5026;SDS011;2532;52.480;13.354;2023-11-18T13:34:23;15.13;;;9.20;;
5026;SDS011;2532;52.480;13.354;2023-11-18T13:36:52;15.83;;;9.03;;
5026;SDS011;2532;52.480;13.354;2023-11-18T13:39:20;14.50;;;8.77;;
5026;SDS011;2532;52.480;13.354;2023-11-18T13:41:48;16.00;;;9.10;;
5026;SDS011;2532;52.480;13.354;2023-11-18T13:47:09;15.50;;;9.17;;
5026;SDS011;2532;52.480;13.354;2023-11-18T13:49:37;18.23;;;9.80;;
5026;SDS011;2532;52.480;13.354;2023-11-18T13:52:05;20.53;;;11.63;;
5026;SDS011;2532;52.480;13.354;2023-11-18T13:54:33;32.07;;;10.73;;
5026;SDS011;2532;52.480;13.354;2023-11-18T13:57:02;16.23;;;9.90;;
5026;SDS011;2532;52.480;13.354;2023-11-18T13:59:31;17.60;;;10.80;;
5026;SDS011;2532;52.480;13.354;2023-11-18T14:01:58;14.47;;;9.07;;
5026;SDS011;2532;52.480;13.354;2023-11-18T14:04:29;15.90;;;8.90;;
5026;SDS011;2532;52.480;13.354;2023-11-18T14:06:59;13.73;;;8.73;;
5026;SDS011;2532;52.480;13.354;2023-11-18T14:09:29;13.90;;;8.50;;
5026;SDS011;2532;52.480;13.354;2023-11-18T14:11:58;13.37;;;9.20;;
5026;SDS011;2532;52.480;13.354;2023-11-18T14:14:25;14.90;;;9.30;;
5026;SDS011;2532;52.480;13.354;2023-11-18T14:16:52;17.10;;;9.63;;
5026;SDS011;2532;52.480;13.354;2023-11-18T14:19:22;16.50;;;9.47;;
5026;SDS011;2532;52.480;13.354;2023-11-18T14:21:51;15.37;;;8.77;;
5026;SDS011;2532;52.480;13.354;2023-11-18T14:24:18;19.90;;;9.27;;
5026;SDS011;2532;52.480;13.354;2023-11-18T14:26:48;18.70;;;9.77;;
5026;SDS011;2532;52.480;13.354;2023-11-18T14:29:15;15.47;;;9.57;;
5026;SDS011;2532;52.480;13.354;2023-11-18T14:31:43;17.77;;;9.27;;
5026;SDS011;2532;52.480;13.354;2023-11-18T14:34:11;13.37;;;9.40;;
5026;SDS011;2532;52.480;13.354;2023-11-18T14:36:39;13.13;;;8.77;;
5026;SDS011;2532;52.480;13.354;2023-11-18T14:39:08;18.47;;;8.90;;
5026;SDS011;2532;52.480;13.354;2023-11-18T14:41:37;18.50;;;8.70;;
5026;SDS011;2532;52.480;13.354;2023-11-18T14:44:05;13.93;;;9.40;;
5026;SDS011;2532;52.480;13.354;2023-11-18T14:46:34;12.90;;;8.23;;
5026;SDS011;2532;52.480;13.354;2023-11-18T14:49:06;15.57;;;9.03;;
5026;SDS011;2532;52.480;13.354;2023-11-18T14:51:35;18.13;;;9.43;;
5026;SDS011;2532;52.480;13.354;2023-11-18T14:54:02;21.07;;;10.30;;
5026;SDS011;2532;52.480;13.354;2023-11-18T14:56:32;15.67;;;9.60;;
5026;SDS011;2532;52.480;13.354;2023-11-18T14:59:00;15.63;;;9.67;;
5026;SDS011;2532;52.480;13.354;2023-11-18T15:01:27;16.50;;;10.17;;
5026;SDS011;2532;52.480;13.354;2023-11-18T15:03:54;13.30;;;8.63;;
5026;SDS011;2532;52.480;13.354;2023-11-18T15:06:24;15.97;;;9.77;;